sensor_id;sensor_type;location;lat;lon;timestamp;pressure;altitude;pressure_sealevel;temperature;humidity
63395;BME280;49531;-34.520;150.798;2024-03-22T00:00:41;101694.53;;;22.96;51.12
63395;BME280;49531;-34.520;150.798;2024-03-22T00:03:07;101694.66;;;23.06;50.65
63395;BME280;49531;-34.520;150.798;2024-03-22T00:05:34;101688.16;;;23.07;50.30
63395;BME280;49531;-34.520;150.798;2024-03-22T00:08:00;101692.00;;;23.11;50.28
63395;BME280;49531;-34.520;150.798;2024-03-22T00:10:26;101687.06;;;23.08;50.42
63395;BME280;49531;-34.520;150.798;2024-03-22T00:12:53;101688.22;;;23.12;50.28
63395;BME280;49531;-34.520;150.798;2024-03-22T00:15:21;101688.22;;;23.12;50.45
63395;BME280;49531;-34.520;150.798;2024-03-22T00:17:48;101683.09;;;23.21;50.23
63395;BME280;49531;-34.520;150.798;2024-03-22T00:20:14;101677.97;;;23.24;50.14
63395;BME280;49531;-34.520;150.798;2024-03-22T00:22:41;101674.22;;;23.31;50.02
63395;BME280;49531;-34.520;150.798;2024-03-22T00:25:07;101676.44;;;23.34;49.65
63395;BME280;49531;-34.520;150.798;2024-03-22T00:27:34;101667.69;;;23.32;49.58
63395;BME280;49531;-34.520;150.798;2024-03-22T00:30:00;101675.69;;;23.38;49.38
63395;BME280;49531;-34.520;150.798;2024-03-22T00:32:27;101666.94;;;23.36;49.48
63395;BME280;49531;-34.520;150.798;2024-03-22T00:34:53;101665.06;;;23.42;49.64
63395;BME280;49531;-34.520;150.798;2024-03-22T00:37:19;101660.81;;;23.51;49.84
63395;BME280;49531;-34.520;150.798;2024-03-22T00:39:49;101662.41;;;23.47;49.94
63395;BME280;49531;-34.520;150.798;2024-03-22T00:42:15;101658.34;;;23.49;49.52
63395;BME280;49531;-34.520;150.798;2024-03-22T00:44:41;101656.53;;;23.55;48.88
63395;BME280;49531;-34.520;150.798;2024-03-22T00:47:08;101651.91;;;23.55;48.84
63395;BME280;49531;-34.520;150.798;2024-03-22T00:49:34;101654.94;;;23.64;49.66
63395;BME280;49531;-34.520;150.798;2024-03-22T00:52:01;101648.16;;;23.67;49.40
63395;BME280;49531;-34.520;150.798;2024-03-22T00:54:28;101651.75;;;23.72;49.11
63395;BME280;49531;-34.520;150.798;2024-03-22T00:56:54;101655.31;;;23.73;48.84
63395;BME280;49531;-34.520;150.798;2024-03-22T00:59:21;101644.41;;;23.73;49.25
63395;BME280;49531;-34.520;150.798;2024-03-22T01:01:48;101648.78;;;23.74;49.14
63395;BME280;49531;-34.520;150.798;2024-03-22T01:04:14;101643.00;;;23.70;49.21
63395;BME280;49531;-34.520;150.798;2024-03-22T01:06:41;101637.03;;;23.73;49.36
63395;BME280;49531;-34.520;150.798;2024-03-22T01:09:07;101636.47;;;23.71;49.42
63395;BME280;49531;-34.520;150.798;2024-03-22T01:11:33;101632.66;;;23.72;49.80
63395;BME280;49531;-34.520;150.798;2024-03-22T01:14:00;101630.50;;;23.74;49.57
63395;BME280;49531;-34.520;150.798;2024-03-22T01:16:26;101634.31;;;23.73;49.59
63395;BME280;49531;-34.520;150.798;2024-03-22T01:18:53;101631.56;;;23.73;49.43
63395;BME280;49531;-34.520;150.798;2024-03-22T01:21:19;101626.94;;;23.74;49.31
63395;BME280;49531;-34.520;150.798;2024-03-22T01:23:53;101620.97;;;23.77;49.09
63395;BME280;49531;-34.520;150.798;2024-03-22T01:26:20;101608.72;;;23.79;49.33
63395;BME280;49531;-34.520;150.798;2024-03-22T01:28:46;101612.56;;;23.83;49.13
63395;BME280;49531;-34.520;150.798;2024-03-22T01:31:13;101603.03;;;23.86;49.62
63395;BME280;49531;-34.520;150.798;2024-03-22T01:33:39;101600.09;;;23.92;49.77
63395;BME280;49531;-34.520;150.798;2024-03-22T01:36:06;101598.50;;;23.97;49.39
63395;BME280;49531;-34.520;150.798;2024-03-22T01:38:32;101597.16;;;23.99;49.52
63395;BME280;49531;-34.520;150.798;2024-03-22T01:40:58;101594.97;;;24.06;48.92
63395;BME280;49531;-34.520;150.798;2024-03-22T01:43:25;101595.25;;;24.05;49.18
63395;BME280;49531;-34.520;150.798;2024-03-22T01:45:51;101604.00;;;24.07;49.09
63395;BME280;49531;-34.520;150.798;2024-03-22T01:48:18;101593.06;;;24.07;48.89
63395;BME280;49531;-34.520;150.798;2024-03-22T01:50:44;101588.75;;;24.11;48.98
63395;BME280;49531;-34.520;150.798;2024-03-22T01:53:11;101589.84;;;24.15;48.91
63395;BME280;49531;-34.520;150.798;2024-03-22T01:55:37;101588.75;;;24.11;48.82
63395;BME280;49531;-34.520;150.798;2024-03-22T01:58:04;101574.31;;;24.15;48.97
63395;BME280;49531;-34.520;150.798;2024-03-22T02:00:31;101580.59;;;24.16;49.25
63395;BME280;49531;-34.520;150.798;2024-03-22T02:02:57;101568.84;;;24.15;49.26
63395;BME280;49531;-34.520;150.798;2024-03-22T02:05:24;101565.31;;;24.20;49.33
63395;BME280;49531;-34.520;150.798;2024-03-22T02:07:50;101572.41;;;24.21;49.49
63395;BME280;49531;-34.520;150.798;2024-03-22T02:10:17;101564.22;;;24.21;49.56
63395;BME280;49531;-34.520;150.798;2024-03-22T02:12:43;101560.47;;;24.27;49.42
63395;BME280;49531;-34.520;150.798;2024-03-22T02:15:10;101553.97;;;24.33;49.42
63395;BME280;49531;-34.520;150.798;2024-03-22T02:17:36;101548.22;;;24.30;49.33
63395;BME280;49531;-34.520;150.798;2024-03-22T02:20:03;101541.94;;;24.29;49.32
63395;BME280;49531;-34.520;150.798;2024-03-22T02:22:30;101540.03;;;24.35;49.32
63395;BME280;49531;-34.520;150.798;2024-03-22T02:24:57;101538.13;;;24.35;49.41
63395;BME280;49531;-34.520;150.798;2024-03-22T02:27:24;101534.56;;;24.35;49.39
63395;BME280;49531;-34.520;150.798;2024-03-22T02:29:51;101534.88;;;24.43;49.14
63395;BME280;49531;-34.520;150.798;2024-03-22T02:32:18;101528.84;;;24.41;49.23
63395;BME280;49531;-34.520;150.798;2024-03-22T02:34:44;101527.19;;;24.40;49.20
63395;BME280;49531;-34.520;150.798;2024-03-22T02:37:10;101519.31;;;24.44;49.18
63395;BME280;49531;-34.520;150.798;2024-03-22T02:39:37;101516.31;;;24.50;49.33
63395;BME280;49531;-34.520;150.798;2024-03-22T02:42:04;101511.69;;;24.51;49.28
63395;BME280;49531;-34.520;150.798;2024-03-22T02:44:30;101507.56;;;24.48;49.42
63395;BME280;49531;-34.520;150.798;2024-03-22T02:46:56;101504.56;;;24.50;49.52
63395;BME280;49531;-34.520;150.798;2024-03-22T02:49:24;101502.41;;;24.52;49.46
63395;BME280;49531;-34.520;150.798;2024-03-22T02:51:50;101501.88;;;24.55;49.21
63395;BME280;49531;-34.520;150.798;2024-03-22T02:54:17;101499.69;;;24.57;49.45
63395;BME280;49531;-34.520;150.798;2024-03-22T02:56:43;101488.78;;;24.62;48.99
63395;BME280;49531;-34.520;150.798;2024-03-22T02:59:10;101493.97;;;24.58;49.25
63395;BME280;49531;-34.520;150.798;2024-03-22T03:01:36;101487.69;;;24.63;49.29
63395;BME280;49531;-34.520;150.798;2024-03-22T03:04:02;101488.78;;;24.62;49.27
63395;BME280;49531;-34.520;150.798;2024-03-22T03:06:29;101483.88;;;24.64;49.35
63395;BME280;49531;-34.520;150.798;2024-03-22T03:08:55;101476.50;;;24.65;49.39
63395;BME280;49531;-34.520;150.798;2024-03-22T03:11:22;101474.59;;;24.65;49.35
63395;BME280;49531;-34.520;150.798;2024-03-22T03:13:48;101474.31;;;24.67;49.47
63395;BME280;49531;-34.520;150.798;2024-03-22T03:16:15;101473.50;;;24.66;49.64
63395;BME280;49531;-34.520;150.798;2024-03-22T03:18:42;101471.03;;;24.70;49.85
63395;BME280;49531;-34.520;150.798;2024-03-22T03:21:09;101461.75;;;24.71;50.06
63395;BME280;49531;-34.520;150.798;2024-03-22T03:23:35;101458.75;;;24.67;50.17
63395;BME280;49531;-34.520;150.798;2024-03-22T03:26:01;101451.66;;;24.71;49.89
63395;BME280;49531;-34.520;150.798;2024-03-22T03:28:28;101452.47;;;24.72;50.04
63395;BME280;49531;-34.520;150.798;2024-03-22T03:30:54;101450.81;;;24.71;50.08
63395;BME280;49531;-34.520;150.798;2024-03-22T03:33:21;101447.00;;;24.72;50.11
63395;BME280;49531;-34.520;150.798;2024-03-22T03:35:47;101444.81;;;24.74;50.15
63395;BME280;49531;-34.520;150.798;2024-03-22T03:38:14;101447.00;;;24.72;50.26
63395;BME280;49531;-34.520;150.798;2024-03-22T03:40:40;101439.63;;;24.77;49.90
63395;BME280;49531;-34.520;150.798;2024-03-22T03:43:07;101440.47;;;24.78;50.07
63395;BME280;49531;-34.520;150.798;2024-03-22T03:45:35;101429.53;;;24.78;49.95
63395;BME280;49531;-34.520;150.798;2024-03-22T03:48:02;101431.72;;;24.76;49.81
63395;BME280;49531;-34.520;150.798;2024-03-22T03:50:29;101429.22;;;24.79;49.81
63395;BME280;49531;-34.520;150.798;2024-03-22T03:52:55;101420.22;;;24.84;49.63
63395;BME280;49531;-34.520;150.798;2024-03-22T03:55:22;101419.41;;;24.88;49.85
63395;BME280;49531;-34.520;150.798;2024-03-22T03:57:51;101421.88;;;24.90;49.77
63395;BME280;49531;-34.520;150.798;2024-03-22T04:00:21;101413.13;;;24.93;50.02
63395;BME280;49531;-34.520;150.798;2024-03-22T04:02:50;101401.63;;;24.91;49.82
63395;BME280;49531;-34.520;150.798;2024-03-22T04:05:17;101399.72;;;24.91;50.01
63395;BME280;49531;-34.520;150.798;2024-03-22T04:07:47;101391.25;;;24.88;49.96
63395;BME280;49531;-34.520;150.798;2024-03-22T04:10:13;101385.50;;;24.94;49.90
63395;BME280;49531;-34.520;150.798;2024-03-22T04:12:39;101385.50;;;24.94;50.11
63395;BME280;49531;-34.520;150.798;2024-03-22T04:15:06;101385.81;;;24.98;50.03
63395;BME280;49531;-34.520;150.798;2024-03-22T04:17:33;101366.69;;;24.98;50.22
63395;BME280;49531;-34.520;150.798;2024-03-22T04:19:59;101370.25;;;24.99;50.16
63395;BME280;49531;-34.520;150.798;2024-03-22T04:22:26;101366.69;;;25.03;50.18
63395;BME280;49531;-34.520;150.798;2024-03-22T04:24:52;101365.03;;;25.02;50.31
63395;BME280;49531;-34.520;150.798;2024-03-22T04:27:19;101361.50;;;25.02;50.14
63395;BME280;49531;-34.520;150.798;2024-03-22T04:29:47;101360.41;;;25.03;50.26
63395;BME280;49531;-34.520;150.798;2024-03-22T04:32:13;101360.94;;;25.05;50.20
63395;BME280;49531;-34.520;150.798;2024-03-22T04:34:43;101359.84;;;25.06;50.50
63395;BME280;49531;-34.520;150.798;2024-03-22T04:37:09;101356.84;;;25.07;50.17
63395;BME280;49531;-34.520;150.798;2024-03-22T04:39:39;101356.28;;;25.10;50.14
63395;BME280;49531;-34.520;150.798;2024-03-22T04:42:06;101350.28;;;25.08;49.96
63395;BME280;49531;-34.520;150.798;2024-03-22T04:44:32;101349.72;;;25.11;50.02
63395;BME280;49531;-34.520;150.798;2024-03-22T04:46:59;101350.53;;;25.17;49.94
63395;BME280;49531;-34.520;150.798;2024-03-22T04:49:25;101336.88;;;25.17;49.77
63395;BME280;49531;-34.520;150.798;2024-03-22T04:51:52;101337.69;;;25.12;49.89
63395;BME280;49531;-34.520;150.798;2024-03-22T04:54:18;101326.22;;;25.15;49.71
63395;BME280;49531;-34.520;150.798;2024-03-22T04:56:45;101322.94;;;25.13;49.98
63395;BME280;49531;-34.520;150.798;2024-03-22T04:59:11;101318.03;;;25.10;50.20
63395;BME280;49531;-34.520;150.798;2024-03-22T05:01:38;101313.09;;;25.07;50.04
63395;BME280;49531;-34.520;150.798;2024-03-22T05:04:04;101313.09;;;25.17;49.83
63395;BME280;49531;-34.520;150.798;2024-03-22T05:06:31;101313.91;;;25.18;49.86
63395;BME280;49531;-34.520;150.798;2024-03-22T05:08:57;101317.47;;;25.18;49.75
63395;BME280;49531;-34.520;150.798;2024-03-22T05:11:23;101307.84;;;25.21;49.92
63395;BME280;49531;-34.520;150.798;2024-03-22T05:13:50;101304.03;;;25.22;50.19
63395;BME280;49531;-34.520;150.798;2024-03-22T05:16:16;101302.63;;;25.30;49.86
63395;BME280;49531;-34.520;150.798;2024-03-22T05:18:43;101300.69;;;25.40;49.77
63395;BME280;49531;-34.520;150.798;2024-03-22T05:21:09;101296.84;;;25.46;49.86
63395;BME280;49531;-34.520;150.798;2024-03-22T05:23:35;101290.53;;;25.51;49.76
63395;BME280;49531;-34.520;150.798;2024-03-22T05:26:02;101287.78;;;25.56;49.78
63395;BME280;49531;-34.520;150.798;2024-03-22T05:28:29;101281.22;;;25.57;49.93
63395;BME280;49531;-34.520;150.798;2024-03-22T05:30:56;101277.91;;;25.65;49.89
63395;BME280;49531;-34.520;150.798;2024-03-22T05:33:22;101279.78;;;25.70;49.88
63395;BME280;49531;-34.520;150.798;2024-03-22T05:35:49;101281.72;;;25.69;49.96
63395;BME280;49531;-34.520;150.798;2024-03-22T05:38:15;101277.56;;;25.77;49.59
63395;BME280;49531;-34.520;150.798;2024-03-22T05:40:41;101270.72;;;25.79;49.75
63395;BME280;49531;-34.520;150.798;2024-03-22T05:43:08;101275.09;;;25.80;49.69
63395;BME280;49531;-34.520;150.798;2024-03-22T05:45:34;101265.25;;;25.79;49.88
63395;BME280;49531;-34.520;150.798;2024-03-22T05:48:01;101267.97;;;25.79;49.71
63395;BME280;49531;-34.520;150.798;2024-03-22T05:50:28;101275.06;;;25.85;49.77
63395;BME280;49531;-34.520;150.798;2024-03-22T05:52:54;101275.06;;;25.85;49.84
63395;BME280;49531;-34.520;150.798;2024-03-22T05:55:21;101284.38;;;25.84;49.86
63395;BME280;49531;-34.520;150.798;2024-03-22T05:57:47;101282.16;;;25.86;50.02
63395;BME280;49531;-34.520;150.798;2024-03-22T06:00:13;101282.16;;;25.86;49.53
63395;BME280;49531;-34.520;150.798;2024-03-22T06:02:40;101281.59;;;25.89;49.53
63395;BME280;49531;-34.520;150.798;2024-03-22T06:05:06;101287.06;;;25.95;49.59
63395;BME280;49531;-34.520;150.798;2024-03-22T06:07:33;101278.59;;;25.91;49.82
63395;BME280;49531;-34.520;150.798;2024-03-22T06:10:06;101283.22;;;25.96;49.63
63395;BME280;49531;-34.520;150.798;2024-03-22T06:12:33;101273.91;;;25.97;49.65
63395;BME280;49531;-34.520;150.798;2024-03-22T06:14:59;101278.56;;;25.96;49.81
63395;BME280;49531;-34.520;150.798;2024-03-22T06:17:26;101280.47;;;25.96;49.70
63395;BME280;49531;-34.520;150.798;2024-03-22T06:19:52;101281.28;;;25.96;49.81
63395;BME280;49531;-34.520;150.798;2024-03-22T06:22:19;101283.22;;;25.96;49.46
63395;BME280;49531;-34.520;150.798;2024-03-22T06:24:45;101276.63;;;25.97;49.75
63395;BME280;49531;-34.520;150.798;2024-03-22T06:27:11;101280.47;;;25.96;49.70
63395;BME280;49531;-34.520;150.798;2024-03-22T06:29:39;101269.53;;;25.96;49.77
63395;BME280;49531;-34.520;150.798;2024-03-22T06:32:05;101275.81;;;25.96;49.73
63395;BME280;49531;-34.520;150.798;2024-03-22T06:34:32;101269.78;;;25.99;49.68
63395;BME280;49531;-34.520;150.798;2024-03-22T06:36:59;101269.19;;;26.02;49.57
63395;BME280;49531;-34.520;150.798;2024-03-22T06:39:25;101272.19;;;26.01;49.69
63395;BME280;49531;-34.520;150.798;2024-03-22T06:41:52;101268.91;;;26.04;49.52
63395;BME280;49531;-34.520;150.798;2024-03-22T06:44:18;101274.66;;;26.02;49.25
63395;BME280;49531;-34.520;150.798;2024-03-22T06:46:45;101276.56;;;26.02;49.62
63395;BME280;49531;-34.520;150.798;2024-03-22T06:49:11;101274.44;;;25.99;49.51
63395;BME280;49531;-34.520;150.798;2024-03-22T06:51:37;101270.56;;;26.00;49.53
63395;BME280;49531;-34.520;150.798;2024-03-22T06:54:04;101271.69;;;25.99;49.59
63395;BME280;49531;-34.520;150.798;2024-03-22T06:56:30;101262.66;;;25.98;49.68
63395;BME280;49531;-34.520;150.798;2024-03-22T06:58:57;101266.22;;;25.99;49.62
63395;BME280;49531;-34.520;150.798;2024-03-22T07:01:24;101268.97;;;25.99;49.65
63395;BME280;49531;-34.520;150.798;2024-03-22T07:03:50;101272.44;;;26.04;49.46
63395;BME280;49531;-34.520;150.798;2024-03-22T07:06:18;101270.53;;;26.05;49.21
63395;BME280;49531;-34.520;150.798;2024-03-22T07:08:44;101267.03;;;25.99;49.26
63395;BME280;49531;-34.520;150.798;2024-03-22T07:11:11;101263.72;;;26.02;49.46
63395;BME280;49531;-34.520;150.798;2024-03-22T07:13:37;101271.38;;;26.00;49.53
63395;BME280;49531;-34.520;150.798;2024-03-22T07:16:04;101268.38;;;26.02;49.43
63395;BME280;49531;-34.520;150.798;2024-03-22T07:18:30;101278.75;;;26.05;49.09
63395;BME280;49531;-34.520;150.798;2024-03-22T07:20:57;101273.84;;;26.02;49.41
63395;BME280;49531;-34.520;150.798;2024-03-22T07:23:27;101270.78;;;26.08;49.19
63395;BME280;49531;-34.520;150.798;2024-03-22T07:25:54;101277.09;;;26.04;49.38
63395;BME280;49531;-34.520;150.798;2024-03-22T07:28:20;101277.66;;;26.06;49.32
63395;BME280;49531;-34.520;150.798;2024-03-22T07:30:47;101273.28;;;26.05;49.30
63395;BME280;49531;-34.520;150.798;2024-03-22T07:33:13;101277.69;;;26.01;49.22
63395;BME280;49531;-34.520;150.798;2024-03-22T07:35:42;101281.47;;;26.05;49.16
63395;BME280;49531;-34.520;150.798;2024-03-22T07:38:08;101281.47;;;26.05;49.24
63395;BME280;49531;-34.520;150.798;2024-03-22T07:40:35;101281.19;;;26.06;49.43
63395;BME280;49531;-34.520;150.798;2024-03-22T07:43:01;101290.50;;;26.05;49.02
63395;BME280;49531;-34.520;150.798;2024-03-22T07:45:36;101285.28;;;26.09;49.30
63395;BME280;49531;-34.520;150.798;2024-03-22T07:48:03;101284.47;;;26.08;49.26
63395;BME280;49531;-34.520;150.798;2024-03-22T07:50:30;101283.94;;;26.06;49.33
63395;BME280;49531;-34.520;150.798;2024-03-22T07:52:56;101287.50;;;26.07;49.26
63395;BME280;49531;-34.520;150.798;2024-03-22T07:55:23;101286.41;;;26.08;49.22
63395;BME280;49531;-34.520;150.798;2024-03-22T07:57:49;101285.72;;;25.87;49.73
63395;BME280;49531;-34.520;150.798;2024-03-22T08:00:16;101282.78;;;25.73;50.13
63395;BME280;49531;-34.520;150.798;2024-03-22T08:02:42;101281.16;;;25.62;50.54
63395;BME280;49531;-34.520;150.798;2024-03-22T08:05:09;101282.88;;;25.48;51.17
63395;BME280;49531;-34.520;150.798;2024-03-22T08:07:35;101284.31;;;25.30;51.59
63395;BME280;49531;-34.520;150.798;2024-03-22T08:10:01;101291.44;;;25.26;51.46
63395;BME280;49531;-34.520;150.798;2024-03-22T08:12:30;101284.59;;;25.23;51.53
63395;BME280;49531;-34.520;150.798;2024-03-22T08:14:56;101296.38;;;25.24;51.38
63395;BME280;49531;-34.520;150.798;2024-03-22T08:17:22;101290.88;;;25.34;51.10
63395;BME280;49531;-34.520;150.798;2024-03-22T08:19:49;101296.31;;;25.44;50.82
63395;BME280;49531;-34.520;150.798;2024-03-22T08:22:15;101299.84;;;25.50;50.61
63395;BME280;49531;-34.520;150.798;2024-03-22T08:24:45;101306.41;;;25.54;50.56
63395;BME280;49531;-34.520;150.798;2024-03-22T08:27:11;101301.47;;;25.56;50.73
63395;BME280;49531;-34.520;150.798;2024-03-22T08:29:39;101308.84;;;25.55;50.71
63395;BME280;49531;-34.520;150.798;2024-03-22T08:32:06;101309.09;;;25.59;50.48
63395;BME280;49531;-34.520;150.798;2024-03-22T08:34:33;101303.63;;;25.59;50.22
63395;BME280;49531;-34.520;150.798;2024-03-22T08:36:59;101307.47;;;25.58;50.21
63395;BME280;49531;-34.520;150.798;2024-03-22T08:39:26;101309.09;;;25.59;50.07
63395;BME280;49531;-34.520;150.798;2024-03-22T08:41:52;101309.09;;;25.59;50.12
63395;BME280;49531;-34.520;150.798;2024-03-22T08:44:19;101304.16;;;25.61;50.13
63395;BME280;49531;-34.520;150.798;2024-03-22T08:46:45;101302.50;;;25.60;50.15
63395;BME280;49531;-34.520;150.798;2024-03-22T08:49:11;101316.50;;;25.58;50.21
63395;BME280;49531;-34.520;150.798;2024-03-22T08:51:38;101316.50;;;25.58;49.97
63395;BME280;49531;-34.520;150.798;2024-03-22T08:54:04;101309.91;;;25.59;50.09
63395;BME280;49531;-34.520;150.798;2024-03-22T08:56:31;101306.38;;;25.59;50.11
63395;BME280;49531;-34.520;150.798;2024-03-22T08:58:58;101311.53;;;25.60;49.76
63395;BME280;49531;-34.520;150.798;2024-03-22T09:01:24;101305.84;;;25.57;49.88
63395;BME280;49531;-34.520;150.798;2024-03-22T09:03:51;101315.97;;;25.56;50.00
63395;BME280;49531;-34.520;150.798;2024-03-22T09:06:17;101321.72;;;25.55;50.08
63395;BME280;49531;-34.520;150.798;2024-03-22T09:08:45;101314.88;;;25.52;50.07
63395;BME280;49531;-34.520;150.798;2024-03-22T09:11:11;101326.63;;;25.53;50.04
63395;BME280;49531;-34.520;150.798;2024-03-22T09:13:38;101328.84;;;25.51;49.88
63395;BME280;49531;-34.520;150.798;2024-03-22T09:16:04;101328.00;;;25.50;49.84
63395;BME280;49531;-34.520;150.798;2024-03-22T09:18:31;101326.66;;;25.48;49.73
63395;BME280;49531;-34.520;150.798;2024-03-22T09:20:58;101334.03;;;25.47;49.88
63395;BME280;49531;-34.520;150.798;2024-03-22T09:23:24;101343.34;;;25.46;49.92
63395;BME280;49531;-34.520;150.798;2024-03-22T09:25:51;101343.91;;;25.43;49.77
63395;BME280;49531;-34.520;150.798;2024-03-22T09:28:17;101343.91;;;25.43;49.77
63395;BME280;49531;-34.520;150.798;2024-03-22T09:30:44;101348.56;;;25.43;49.77
63395;BME280;49531;-34.520;150.798;2024-03-22T09:33:10;101346.66;;;25.38;49.80
63395;BME280;49531;-34.520;150.798;2024-03-22T09:35:36;101349.09;;;25.40;49.83
63395;BME280;49531;-34.520;150.798;2024-03-22T09:38:03;101345.28;;;25.41;49.85
63395;BME280;49531;-34.520;150.798;2024-03-22T09:40:29;101346.66;;;25.38;49.98
63395;BME280;49531;-34.520;150.798;2024-03-22T09:42:58;101349.13;;;25.35;49.84
63395;BME280;49531;-34.520;150.798;2024-03-22T09:45:28;101344.75;;;25.29;50.16
63395;BME280;49531;-34.520;150.798;2024-03-22T09:47:55;101346.41;;;25.24;50.32
63395;BME280;49531;-34.520;150.798;2024-03-22T09:50:22;101339.59;;;25.17;50.07
63395;BME280;49531;-34.520;150.798;2024-03-22T09:52:49;101353.22;;;25.27;50.15
63395;BME280;49531;-34.520;150.798;2024-03-22T09:55:20;101353.22;;;25.27;50.05
63395;BME280;49531;-34.520;150.798;2024-03-22T09:57:49;101361.44;;;25.27;49.95
63395;BME280;49531;-34.520;150.798;2024-03-22T10:00:18;101366.09;;;25.26;49.96
63395;BME280;49531;-34.520;150.798;2024-03-22T10:02:46;101366.63;;;25.23;49.89
63395;BME280;49531;-34.520;150.798;2024-03-22T10:05:13;101366.09;;;25.21;49.92
63395;BME280;49531;-34.520;150.798;2024-03-22T10:07:40;101377.59;;;25.18;50.14
63395;BME280;49531;-34.520;150.798;2024-03-22T10:10:07;101382.53;;;25.16;50.35
63395;BME280;49531;-34.520;150.798;2024-03-22T10:12:33;101375.16;;;25.12;50.20
63395;BME280;49531;-34.520;150.798;2024-03-22T10:15:00;101376.53;;;25.09;50.36
63395;BME280;49531;-34.520;150.798;2024-03-22T10:17:27;101373.25;;;25.07;50.57
63395;BME280;49531;-34.520;150.798;2024-03-22T10:19:54;101380.63;;;25.07;50.19
63395;BME280;49531;-34.520;150.798;2024-03-22T10:22:21;101377.34;;;25.05;50.57
63395;BME280;49531;-34.520;150.798;2024-03-22T10:24:47;101363.41;;;25.01;50.49
63395;BME280;49531;-34.520;150.798;2024-03-22T10:27:14;101363.41;;;25.01;50.39
63395;BME280;49531;-34.520;150.798;2024-03-22T10:29:40;101361.22;;;24.98;50.42
63395;BME280;49531;-34.520;150.798;2024-03-22T10:32:07;101369.41;;;24.98;50.26
63395;BME280;49531;-34.520;150.798;2024-03-22T10:34:34;101378.16;;;25.00;50.15
63395;BME280;49531;-34.520;150.798;2024-03-22T10:37:01;101385.81;;;24.98;50.30
63395;BME280;49531;-34.520;150.798;2024-03-22T10:39:27;101387.47;;;24.99;50.47
63395;BME280;49531;-34.520;150.798;2024-03-22T10:41:54;101390.19;;;24.99;50.35
63395;BME280;49531;-34.520;150.798;2024-03-22T10:44:20;101389.09;;;25.00;50.35
63395;BME280;49531;-34.520;150.798;2024-03-22T10:46:48;101393.47;;;24.96;50.27
63395;BME280;49531;-34.520;150.798;2024-03-22T10:49:18;101400.56;;;24.97;50.14
63395;BME280;49531;-34.520;150.798;2024-03-22T10:51:49;101395.38;;;24.96;50.26
63395;BME280;49531;-34.520;150.798;2024-03-22T10:54:20;101401.38;;;24.87;50.60
63395;BME280;49531;-34.520;150.798;2024-03-22T10:56:47;101402.72;;;24.85;50.52
63395;BME280;49531;-34.520;150.798;2024-03-22T10:59:24;101404.63;;;24.84;50.52
63395;BME280;49531;-34.520;150.798;2024-03-22T11:01:50;101404.91;;;24.83;50.41
63395;BME280;49531;-34.520;150.798;2024-03-22T11:04:17;101409.56;;;24.82;50.55
63395;BME280;49531;-34.520;150.798;2024-03-22T11:06:47;101414.75;;;24.84;50.27
63395;BME280;49531;-34.520;150.798;2024-03-22T11:09:21;101411.75;;;24.80;50.54
63395;BME280;49531;-34.520;150.798;2024-03-22T11:11:48;101421.03;;;24.79;50.58
63395;BME280;49531;-34.520;150.798;2024-03-22T11:14:15;101412.84;;;24.79;50.05
63395;BME280;49531;-34.520;150.798;2024-03-22T11:16:44;101425.72;;;24.79;50.15
63395;BME280;49531;-34.520;150.798;2024-03-22T11:19:11;101431.69;;;24.81;50.00
63395;BME280;49531;-34.520;150.798;2024-03-22T11:21:38;101439.38;;;24.79;50.17
63395;BME280;49531;-34.520;150.798;2024-03-22T11:24:05;101427.88;;;24.77;50.28
63395;BME280;49531;-34.520;150.798;2024-03-22T11:26:34;101431.72;;;24.76;50.30
63395;BME280;49531;-34.520;150.798;2024-03-22T11:29:01;101431.16;;;24.74;50.48
63395;BME280;49531;-34.520;150.798;2024-03-22T11:31:27;101430.63;;;24.72;50.44
63395;BME280;49531;-34.520;150.798;2024-03-22T11:33:54;101422.97;;;24.69;50.29
63395;BME280;49531;-34.520;150.798;2024-03-22T11:36:20;101424.03;;;24.63;50.56
63395;BME280;49531;-34.520;150.798;2024-03-22T11:38:47;101414.19;;;24.62;50.60
63395;BME280;49531;-34.520;150.798;2024-03-22T11:41:20;101405.44;;;24.59;50.42
63395;BME280;49531;-34.520;150.798;2024-03-22T11:43:49;101403.81;;;24.53;50.77
63395;BME280;49531;-34.520;150.798;2024-03-22T11:46:16;101399.69;;;24.51;50.78
63395;BME280;49531;-34.520;150.798;2024-03-22T11:48:42;101399.97;;;24.49;50.64
63395;BME280;49531;-34.520;150.798;2024-03-22T11:51:09;101399.16;;;24.49;50.44
63395;BME280;49531;-34.520;150.798;2024-03-22T11:53:36;101393.69;;;24.49;50.39
63395;BME280;49531;-34.520;150.798;2024-03-22T11:56:03;101391.22;;;24.47;50.45
63395;BME280;49531;-34.520;150.798;2024-03-22T11:58:30;101387.94;;;24.45;50.61
63395;BME280;49531;-34.520;150.798;2024-03-22T12:00:57;101377.84;;;24.46;50.53
63395;BME280;49531;-34.520;150.798;2024-03-22T12:03:23;101380.31;;;24.47;50.44
63395;BME280;49531;-34.520;150.798;2024-03-22T12:05:50;101380.84;;;24.44;50.34
63395;BME280;49531;-34.520;150.798;2024-03-22T12:08:18;101387.41;;;24.43;50.14
63395;BME280;49531;-34.520;150.798;2024-03-22T12:10:44;101385.75;;;24.42;50.27
63395;BME280;49531;-34.520;150.798;2024-03-22T12:13:11;101391.75;;;24.44;50.17
63395;BME280;49531;-34.520;150.798;2024-03-22T12:15:37;101384.66;;;24.43;50.22
63395;BME280;49531;-34.520;150.798;2024-03-22T12:18:04;101393.13;;;24.42;50.29